Johnstown, Ohio
Current Conditions -  °F | °C
As of 5:51 PM on Thursday 20 Nov 2014 (Local Time) from KCMH Reporting Station
Scattered Clouds Scattered Clouds  
Wind Chill: 15°   Ceiling: Unl
Heat Index: 26°   Visibility: 10mi
Dew Point: 13°   Wind: 13mph
Humidity: 58%   Direction: 260°W
Pressure: 30.12"   Gusts: NA
Location:  40.15°N, 82.69°W
Report Text: KCMH 202251Z 26011KT 10SM SCT040 M03/M11 A3012 RMK AO2 SLP210 T10331106 $
Loading
Personal Weather Stations






























Interactive Weather Map New forecast layout! Learn more

10-Day Weather Forecast

Advertisements
Track Severe Weather on mobile